Nyk Orpheus — 7JDN — position and weather

sailwx.info

Track history (hours):
 
Tides and Currents Weather Stations Pressure Air Temp Water Temp Dewpoint Dewpoint Depression Visibility Wind Speed Wind Dir Waves Ship Positions

Nyk Orpheus

Last reported at 2015-Jan-23 11:22 UTC. Time now 2015-Jan-25 20:23 UTC.
Position N 24°18' E 119°06'.

Length 336 m; draft 12.9 m.

Type: Other ship. MMSI: 432657000.

Date/timePositionNaut miles runAvg speedWind from/ knotsBaromVisibWave heightAir tempDewpointWater temp
2015-Jan-23 11:22N 24°18' E 119°06'1518.2
2015-Jan-23 10:33N 24°08' E 118°54'1818.3
2015-Jan-23 09:33N 23°57' E 118°38'1817.7
2015-Jan-23 08:33N 23°46' E 118°23'1717.0
2015-Jan-23 07:33N 23°35' E 118°09'3817.9
2015-Jan-23 05:25N 23°15' E 117°33'19517.4
2015-Jan-22 18:13N 22°08' E 114°15'911.5
2015-Jan-22 17:24N 22°14' E 114°08'6 7.4
2015-Jan-22 16:33N 22°20' E 114°07'0 0.4
2015-Jan-22 15:31N 22°21' E 114°07'0 0.0
2015-Jan-22 13:28N 22°21' E 114°07'0 0.0
2015-Jan-22 12:07N 22°21' E 114°07'0 0.0
2015-Jan-22 00:33N 22°20' E 114°07'8 6.8
2015-Jan-21 23:22N 22°13' E 114°10'5 8.0
2015-Jan-21 22:48N 22°09' E 114°13'0 8.5
2015-Jan-21 22:46N 22°09' E 114°14'5 8.2
2015-Jan-21 22:11N 22°08' E 114°19'5 5.8
2015-Jan-21 21:18N 22°09' E 114°24'9 9.1
2015-Jan-21 20:16N 22°07' E 114°34'22 7.6
2015-Jan-21 17:24N 21°45' E 114°32'  
2015-Jan-17 13:19N 01°15' E 104°09'1013.2
2015-Jan-17 12:32N 01°14' E 103°59'8 7.7
2015-Jan-17 11:33N 01°15' E 103°52'2 1.6
2015-Jan-17 10:33N 01°16' E 103°51'0 0.0
2015-Jan-17 09:33N 01°16' E 103°51'0 0.0
2015-Jan-17 08:33N 01°16' E 103°51'0 0.0
2015-Jan-17 07:33N 01°16' E 103°51'0 0.0
2015-Jan-17 06:34N 01°16' E 103°51'0 0.0
2015-Jan-17 05:33N 01°16' E 103°51'0 0.0
2015-Jan-17 04:34N 01°16' E 103°51'0 0.0
2015-Jan-17 03:33N 01°16' E 103°51'0 0.0
2015-Jan-17 02:34N 01°16' E 103°51'0 0.0
2015-Jan-17 01:33N 01°16' E 103°51'0 0.0
2015-Jan-17 00:33N 01°16' E 103°51'0 0.0
2015-Jan-16 23:33N 01°16' E 103°51'0 0.0
2015-Jan-16 22:34N 01°16' E 103°51'0 0.0
2015-Jan-16 21:34N 01°16' E 103°51'0 0.0
2015-Jan-16 20:33N 01°16' E 103°51'0 0.0
2015-Jan-16 19:34N 01°16' E 103°51'0 0.0
2015-Jan-16 18:33N 01°16' E 103°51'0 0.0
2015-Jan-16 17:33N 01°16' E 103°51'0 0.0
2015-Jan-16 16:34N 01°16' E 103°51'0 0.0
2015-Jan-16 15:34N 01°16' E 103°51'0 0.0
2015-Jan-16 14:34N 01°16' E 103°51'0 0.0
2015-Jan-16 13:34N 01°16' E 103°51'0 0.0
2015-Jan-16 12:33N 01°16' E 103°51'0 0.0
2015-Jan-16 11:34N 01°16' E 103°51'0 0.0
2015-Jan-16 10:33N 01°16' E 103°51'0 0.0
2015-Jan-16 09:34N 01°16' E 103°51'3 2.9
2015-Jan-16 08:33N 01°14' E 103°53'2 2.5
2015-Jan-16 07:33N 01°12' E 103°53'8 8.0
2015-Jan-16 06:33N 01°08' E 103°46'9011.2
2015-Jan-15 22:33N 01°47' E 102°25'  
Track history (hours):
 
Tides and Currents Weather Stations Pressure Air Temp Water Temp Dewpoint Dewpoint Depression Visibility Wind Speed Wind Dir Waves Ship Positions

Nyk Orpheus

Last reported at 2015-Jan-23 11:22 UTC. Time now 2015-Jan-25 20:23 UTC.
Position N 24°18' E 119°06'.

Length 336 m; draft 12.9 m.

Type: Other ship. MMSI: 432657000.

Date/timePositionNaut miles runAvg speedWind from/ knotsBaromVisibWave heightAir tempDewpointWater temp
2015-Jan-23 11:22N 24°18' E 119°06'1518.2
2015-Jan-23 10:33N 24°08' E 118°54'1818.3
2015-Jan-23 09:33N 23°57' E 118°38'1817.7
2015-Jan-23 08:33N 23°46' E 118°23'1717.0
2015-Jan-23 07:33N 23°35' E 118°09'3817.9
2015-Jan-23 05:25N 23°15' E 117°33'19517.4
2015-Jan-22 18:13N 22°08' E 114°15'911.5
2015-Jan-22 17:24N 22°14' E 114°08'6 7.4
2015-Jan-22 16:33N 22°20' E 114°07'0 0.4
2015-Jan-22 15:31N 22°21' E 114°07'0 0.0
2015-Jan-22 13:28N 22°21' E 114°07'0 0.0
2015-Jan-22 12:07N 22°21' E 114°07'0 0.0
2015-Jan-22 00:33N 22°20' E 114°07'8 6.8
2015-Jan-21 23:22N 22°13' E 114°10'5 8.0
2015-Jan-21 22:48N 22°09' E 114°13'0 8.5
2015-Jan-21 22:46N 22°09' E 114°14'5 8.2
2015-Jan-21 22:11N 22°08' E 114°19'5 5.8
2015-Jan-21 21:18N 22°09' E 114°24'9 9.1
2015-Jan-21 20:16N 22°07' E 114°34'22 7.6
2015-Jan-21 17:24N 21°45' E 114°32'  
2015-Jan-17 13:19N 01°15' E 104°09'1013.2
2015-Jan-17 12:32N 01°14' E 103°59'8 7.7
2015-Jan-17 11:33N 01°15' E 103°52'2 1.6
2015-Jan-17 10:33N 01°16' E 103°51'0 0.0
2015-Jan-17 09:33N 01°16' E 103°51'0 0.0
2015-Jan-17 08:33N 01°16' E 103°51'0 0.0
2015-Jan-17 07:33N 01°16' E 103°51'0 0.0
2015-Jan-17 06:34N 01°16' E 103°51'0 0.0
2015-Jan-17 05:33N 01°16' E 103°51'0 0.0
2015-Jan-17 04:34N 01°16' E 103°51'0 0.0
2015-Jan-17 03:33N 01°16' E 103°51'0 0.0
2015-Jan-17 02:34N 01°16' E 103°51'0 0.0
2015-Jan-17 01:33N 01°16' E 103°51'0 0.0
2015-Jan-17 00:33N 01°16' E 103°51'0 0.0
2015-Jan-16 23:33N 01°16' E 103°51'0 0.0
2015-Jan-16 22:34N 01°16' E 103°51'0 0.0
2015-Jan-16 21:34N 01°16' E 103°51'0 0.0
2015-Jan-16 20:33N 01°16' E 103°51'0 0.0
2015-Jan-16 19:34N 01°16' E 103°51'0 0.0
2015-Jan-16 18:33N 01°16' E 103°51'0 0.0
2015-Jan-16 17:33N 01°16' E 103°51'0 0.0
2015-Jan-16 16:34N 01°16' E 103°51'0 0.0
2015-Jan-16 15:34N 01°16' E 103°51'0 0.0
2015-Jan-16 14:34N 01°16' E 103°51'0 0.0
2015-Jan-16 13:34N 01°16' E 103°51'0 0.0
2015-Jan-16 12:33N 01°16' E 103°51'0 0.0
2015-Jan-16 11:34N 01°16' E 103°51'0 0.0
2015-Jan-16 10:33N 01°16' E 103°51'0 0.0
2015-Jan-16 09:34N 01°16' E 103°51'3 2.9
2015-Jan-16 08:33N 01°14' E 103°53'2 2.5
2015-Jan-16 07:33N 01°12' E 103°53'8 8.0
2015-Jan-16 06:33N 01°08' E 103°46'9011.2
2015-Jan-15 22:33N 01°47' E 102°25'  

Dump ship's entire track history